San Juan Enterprise — WDD9563 — position and weather

sailwx.info

Track history (hours):
 
Tides and Currents Weather Stations Pressure Air Temp Water Temp Dewpoint Dewpoint Depression Visibility Wind Speed Wind Dir Waves Ship Positions

San Juan Enterprise

Owner: SAN JUAN MARINE FREIGHT CO LLC, ANACORTES, WA. More information available from US FCC via Universal Licensing System and Coast Guard Vessel Documentation Center.

Last reported at 2015-May-23 04:33 UTC. Time now 2015-May-23 05:52 UTC.
Position N 48°31' W 122°36'.

Length 30 m.

MMSI: 367313160.

Date/timePositionNaut miles runAvg speedWind from/ knotsBaromVisibWave heightAir tempDewpointWater temp
2015-May-23 04:33N 48°31' W 122°36'0 0.0
2015-May-23 03:33N 48°31' W 122°36'0 0.0
2015-May-23 02:33N 48°31' W 122°36'0 0.0
2015-May-23 01:33N 48°31' W 122°36'0 0.0
2015-May-23 00:33N 48°31' W 122°36'0 0.0
2015-May-22 23:21N 48°31' W 122°36'0 0.0
2015-May-22 22:27N 48°31' W 122°36'0 0.0
2015-May-22 21:32N 48°31' W 122°36'0 0.0
2015-May-22 20:33N 48°31' W 122°36'4 7.5
2015-May-22 19:57N 48°32' W 122°43'410.9
2015-May-22 19:33N 48°35' W 122°47'1 1.5
2015-May-22 18:37N 48°36' W 122°49'0 5.3
2015-May-22 18:33N 48°36' W 122°49'0 0.0
2015-May-22 17:33N 48°36' W 122°49'1 2.6
2015-May-22 17:05N 48°35' W 122°49'1 2.3
2015-May-22 16:33N 48°36' W 122°49'4 6.8
2015-May-22 15:55N 48°34' W 122°44'0 0.0
2015-May-22 15:33N 48°34' W 122°44'3 3.5
2015-May-22 14:33N 48°32' W 122°39'2 2.0
2015-May-22 13:29N 48°31' W 122°36'0 0.0
2015-May-22 12:29N 48°31' W 122°36'0 0.0
2015-May-22 11:29N 48°31' W 122°36'0 0.0
2015-May-22 10:29N 48°31' W 122°36'0 0.0
2015-May-22 09:23N 48°31' W 122°36'0 0.0
2015-May-22 08:29N 48°31' W 122°36'0 0.0
2015-May-22 07:29N 48°31' W 122°36'0 0.0
2015-May-22 06:23N 48°31' W 122°36'0 0.0
2015-May-22 05:29N 48°31' W 122°36'0 0.0
2015-May-22 04:29N 48°31' W 122°36'0 0.0
2015-May-22 03:29N 48°31' W 122°36'0 0.0
2015-May-22 02:29N 48°31' W 122°36'0 0.0
2015-May-22 01:29N 48°31' W 122°36'0 0.0
2015-May-22 00:29N 48°31' W 122°36'0 0.0
2015-May-21 23:29N 48°31' W 122°36'1 0.7
2015-May-21 22:33N 48°31' W 122°37'0 0.1
2015-May-21 21:33N 48°31' W 122°36'1 0.6
2015-May-21 20:33N 48°31' W 122°36'0 0.0
2015-May-21 19:33N 48°31' W 122°36'1 0.8
2015-May-21 18:33N 48°31' W 122°37'9 8.6
2015-May-21 17:33N 48°36' W 122°48'1 1.3
2015-May-21 16:33N 48°35' W 122°50'0 0.1
2015-May-21 15:33N 48°35' W 122°50'5 5.0
2015-May-21 14:36N 48°32' W 122°43'0 8.4
2015-May-21 14:33N 48°32' W 122°43'5 4.6
2015-May-21 13:32N 48°31' W 122°36'0 0.0
2015-May-21 12:32N 48°31' W 122°36'0 0.0
2015-May-21 11:32N 48°31' W 122°36'0 0.0
2015-May-21 10:32N 48°31' W 122°36'0 0.0
2015-May-21 09:32N 48°31' W 122°36'0 0.0
2015-May-21 08:32N 48°31' W 122°36'0 0.0
2015-May-21 07:26N 48°31' W 122°36'0 0.0
2015-May-21 06:32N 48°31' W 122°36'0 0.0
2015-May-21 05:32N 48°31' W 122°36'0 0.0
2015-May-21 04:32N 48°31' W 122°36'0 0.0
2015-May-21 03:32N 48°31' W 122°36'0 0.0
2015-May-21 02:32N 48°31' W 122°36'0 0.0
2015-May-21 01:32N 48°31' W 122°36'0 0.0
2015-May-21 00:32N 48°31' W 122°36'0 0.0
2015-May-20 23:32N 48°31' W 122°36'0 0.0
2015-May-20 22:32N 48°31' W 122°36'0 0.0
2015-May-20 21:32N 48°31' W 122°36'0 0.0
2015-May-20 20:32N 48°31' W 122°36'0 0.0
2015-May-20 19:32N 48°31' W 122°36'0 0.0
2015-May-20 18:32N 48°31' W 122°36'0 0.0
2015-May-20 17:32N 48°31' W 122°36'0 0.0
2015-May-20 16:32N 48°31' W 122°36'0 0.0
2015-May-20 15:32N 48°31' W 122°36'0 0.0
2015-May-20 14:32N 48°31' W 122°36'0 0.0
2015-May-20 13:32N 48°31' W 122°36'0 0.0
2015-May-20 12:32N 48°31' W 122°36'0 0.0
2015-May-20 11:32N 48°31' W 122°36'0 0.0
2015-May-20 10:32N 48°31' W 122°36'0 0.0
2015-May-20 10:29N 48°31' W 122°36'0 0.0
2015-May-20 09:29N 48°31' W 122°36'0 0.0
2015-May-20 08:32N 48°31' W 122°36'0 0.0
2015-May-20 07:32N 48°31' W 122°36'0 0.0
2015-May-20 06:32N 48°31' W 122°36'0 0.0
2015-May-20 05:32N 48°31' W 122°36'0 0.0
2015-May-20 04:26N 48°31' W 122°36'0 0.0
2015-May-20 03:32N 48°31' W 122°36'0 0.0
2015-May-20 02:32N 48°31' W 122°36'0 0.0
2015-May-20 01:32N 48°31' W 122°36'0 0.0
2015-May-20 00:26N 48°31' W 122°36'0 0.0
2015-May-19 23:20N 48°31' W 122°36'0 0.0
2015-May-19 22:33N 48°31' W 122°36'1 0.6
2015-May-19 21:33N 48°31' W 122°36'4 4.1
2015-May-19 20:33N 48°32' W 122°42'8 7.9
2015-May-19 19:33N 48°34' W 122°54'5 4.6
2015-May-19 18:33N 48°32' W 122°60'0 0.0
2015-May-19 17:33N 48°32' W 122°60'6 6.3
2015-May-19 16:33N 48°34' W 122°51'7 7.1
2015-May-19 15:33N 48°32' W 122°41'3 0.3
2015-May-19 05:31N 48°31' W 122°36'0 0.0
2015-May-19 04:25N 48°31' W 122°36'0 0.0
2015-May-19 03:07N 48°31' W 122°36'0 0.0
2015-May-19 02:07N 48°31' W 122°36'3 1.2
2015-May-18 23:33N 48°32' W 122°41'7 6.9
2015-May-18 22:33N 48°36' W 122°49'2 2.3
2015-May-18 21:33N 48°34' W 122°50'1 1.3
2015-May-18 20:33N 48°35' W 122°49'0 0.0
2015-May-18 19:33N 48°35' W 122°49'7 7.1
2015-May-18 18:33N 48°32' W 122°40'2 2.2
2015-May-18 17:31N 48°31' W 122°36'0 0.0
2015-May-18 15:32N 48°31' W 122°36'0 0.0
2015-May-18 14:07N 48°31' W 122°36'0 0.0
2015-May-18 13:20N 48°31' W 122°36'0 0.0
2015-May-18 12:23N 48°31' W 122°36'0 0.0
2015-May-18 08:28N 48°31' W 122°36'0 0.0
2015-May-18 07:10N 48°31' W 122°36'0 0.0
2015-May-17 23:04N 48°31' W 122°36'0 0.0
2015-May-17 22:14N 48°31' W 122°36'0 0.0
2015-May-17 21:29N 48°31' W 122°36'0 0.0
2015-May-17 19:14N 48°31' W 122°36'0 0.0
2015-May-17 13:07N 48°31' W 122°36'0 0.0
2015-May-16 04:33N 48°31' W 122°36'4 3.8
2015-May-16 03:33N 48°30' W 122°42'9 7.7
2015-May-16 02:19N 48°22' W 122°34'7 8.4
2015-May-16 01:33N 48°16' W 122°31'11 7.8
2015-May-16 00:10N 48°06' W 122°27'7 8.9
2015-May-15 23:25N 48°02' W 122°19'4 4.9
2015-May-15 22:33N 48°00' W 122°13'4 4.0
2015-May-15 21:32N 48°01' W 122°19'0 0.0
2015-May-15 20:31N 48°01' W 122°19'0 0.0
2015-May-15 19:33N 48°01' W 122°19'4 4.1
2015-May-15 18:33N 48°00' W 122°13'0 0.1
2015-May-15 17:33N 48°00' W 122°13'4 4.0
2015-May-15 16:33N 48°01' W 122°19'0 0.0
2015-May-15 15:33N 48°01' W 122°19'4 4.1
2015-May-15 14:33N 48°00' W 122°13'0 0.1
2015-May-15 13:28N 48°00' W 122°13'0 0.0
2015-May-15 12:28N 48°00' W 122°13'0 0.0
2015-May-15 11:28N 48°00' W 122°13'0 0.0
2015-May-15 10:28N 48°00' W 122°13'0 0.0
2015-May-15 09:28N 48°00' W 122°13'0 0.0
2015-May-15 08:28N 48°00' W 122°13'0 0.0
2015-May-15 07:28N 48°00' W 122°13'0 0.0
2015-May-15 06:28N 48°00' W 122°13'0 0.0
2015-May-15 05:31N 48°00' W 122°13'0 0.0
2015-May-15 04:28N 48°00' W 122°13'0 0.0
2015-May-15 03:28N 48°00' W 122°13'0 0.0
2015-May-15 02:19N 48°00' W 122°13'0 0.0
2015-May-15 01:28N 48°00' W 122°13'1 1.5
2015-May-15 00:33N 47°59' W 122°15'2 1.7
2015-May-14 23:28N 48°00' W 122°18'3 3.1
2015-May-14 22:33N 48°00' W 122°13'4 4.1
2015-May-14 21:33N 48°01' W 122°19'0 0.0
2015-May-14 20:31N 48°01' W 122°19'4 4.3
2015-May-14 19:33N 48°00' W 122°13'0 0.0
2015-May-14 18:33N 48°00' W 122°13'3 2.9
2015-May-14 17:32N 48°01' W 122°18'1 4.7
2015-May-14 17:16N 48°01' W 122°19'0 0.0
2015-May-14 16:33N 48°01' W 122°19'0 0.0
2015-May-14 16:31N 48°01' W 122°19'4 4.3
2015-May-14 15:33N 47°60' W 122°13'0 0.2
2015-May-14 14:04N 48°00' W 122°13'0 0.0
2015-May-14 13:28N 48°00' W 122°13'0 0.0
2015-May-14 12:25N 48°00' W 122°13'0 0.0
2015-May-14 11:31N 48°00' W 122°13'0 0.0
2015-May-14 10:25N 48°00' W 122°13'0 0.0
2015-May-14 09:31N 48°00' W 122°13'0 0.0
2015-May-14 08:28N 48°00' W 122°13'0 0.0
2015-May-14 07:31N 48°00' W 122°13'0 0.0
2015-May-14 06:31N 48°00' W 122°13'0 0.0
2015-May-14 05:31N 48°00' W 122°13'0 0.0
2015-May-14 04:31N 48°00' W 122°13'0 0.0
2015-May-14 03:25N 48°00' W 122°13'0 0.0
2015-May-14 02:25N 48°00' W 122°13'0 0.0
2015-May-14 01:31N 48°00' W 122°13'1 0.7
2015-May-14 00:32N 47°60' W 122°14'4 4.3
2015-May-13 23:33N 48°01' W 122°19'2 6.6
2015-May-13 23:16N 48°00' W 122°17'2 3.4
2015-May-13 22:33N 48°00' W 122°13'3 2.6
2015-May-13 21:33N 48°00' W 122°17'2 1.6
2015-May-13 20:33N 48°01' W 122°19'4 4.2
2015-May-13 19:33N 47°59' W 122°14'0 0.4
2015-May-13 18:33N 47°59' W 122°14'4 2.0
2015-May-13 16:33N 48°01' W 122°19'4 4.0
2015-May-13 15:33N 48°00' W 122°13'0 0.2
2015-May-13 14:33N 48°00' W 122°13'0 0.1
2015-May-13 13:26N 48°00' W 122°13'0 0.0
2015-May-13 12:26N 48°00' W 122°13'0 0.0
2015-May-13 11:08N 48°00' W 122°13'  
Track history (hours):
 
Tides and Currents Weather Stations Pressure Air Temp Water Temp Dewpoint Dewpoint Depression Visibility Wind Speed Wind Dir Waves Ship Positions

San Juan Enterprise

Owner: SAN JUAN MARINE FREIGHT CO LLC, ANACORTES, WA. More information available from US FCC via Universal Licensing System and Coast Guard Vessel Documentation Center.

Last reported at 2015-May-23 04:33 UTC. Time now 2015-May-23 05:52 UTC.
Position N 48°31' W 122°36'.

Length 30 m.

MMSI: 367313160.

Date/timePositionNaut miles runAvg speedWind from/ knotsBaromVisibWave heightAir tempDewpointWater temp
2015-May-23 04:33N 48°31' W 122°36'0 0.0
2015-May-23 03:33N 48°31' W 122°36'0 0.0
2015-May-23 02:33N 48°31' W 122°36'0 0.0
2015-May-23 01:33N 48°31' W 122°36'0 0.0
2015-May-23 00:33N 48°31' W 122°36'0 0.0
2015-May-22 23:21N 48°31' W 122°36'0 0.0
2015-May-22 22:27N 48°31' W 122°36'0 0.0
2015-May-22 21:32N 48°31' W 122°36'0 0.0
2015-May-22 20:33N 48°31' W 122°36'4 7.5
2015-May-22 19:57N 48°32' W 122°43'410.9
2015-May-22 19:33N 48°35' W 122°47'1 1.5
2015-May-22 18:37N 48°36' W 122°49'0 5.3
2015-May-22 18:33N 48°36' W 122°49'0 0.0
2015-May-22 17:33N 48°36' W 122°49'1 2.6
2015-May-22 17:05N 48°35' W 122°49'1 2.3
2015-May-22 16:33N 48°36' W 122°49'4 6.8
2015-May-22 15:55N 48°34' W 122°44'0 0.0
2015-May-22 15:33N 48°34' W 122°44'3 3.5
2015-May-22 14:33N 48°32' W 122°39'2 2.0
2015-May-22 13:29N 48°31' W 122°36'0 0.0
2015-May-22 12:29N 48°31' W 122°36'0 0.0
2015-May-22 11:29N 48°31' W 122°36'0 0.0
2015-May-22 10:29N 48°31' W 122°36'0 0.0
2015-May-22 09:23N 48°31' W 122°36'0 0.0
2015-May-22 08:29N 48°31' W 122°36'0 0.0
2015-May-22 07:29N 48°31' W 122°36'0 0.0
2015-May-22 06:23N 48°31' W 122°36'0 0.0
2015-May-22 05:29N 48°31' W 122°36'0 0.0
2015-May-22 04:29N 48°31' W 122°36'0 0.0
2015-May-22 03:29N 48°31' W 122°36'0 0.0
2015-May-22 02:29N 48°31' W 122°36'0 0.0
2015-May-22 01:29N 48°31' W 122°36'0 0.0
2015-May-22 00:29N 48°31' W 122°36'0 0.0
2015-May-21 23:29N 48°31' W 122°36'1 0.7
2015-May-21 22:33N 48°31' W 122°37'0 0.1
2015-May-21 21:33N 48°31' W 122°36'1 0.6
2015-May-21 20:33N 48°31' W 122°36'0 0.0
2015-May-21 19:33N 48°31' W 122°36'1 0.8
2015-May-21 18:33N 48°31' W 122°37'9 8.6
2015-May-21 17:33N 48°36' W 122°48'1 1.3
2015-May-21 16:33N 48°35' W 122°50'0 0.1
2015-May-21 15:33N 48°35' W 122°50'5 5.0
2015-May-21 14:36N 48°32' W 122°43'0 8.4
2015-May-21 14:33N 48°32' W 122°43'5 4.6
2015-May-21 13:32N 48°31' W 122°36'0 0.0
2015-May-21 12:32N 48°31' W 122°36'0 0.0
2015-May-21 11:32N 48°31' W 122°36'0 0.0
2015-May-21 10:32N 48°31' W 122°36'0 0.0
2015-May-21 09:32N 48°31' W 122°36'0 0.0
2015-May-21 08:32N 48°31' W 122°36'0 0.0
2015-May-21 07:26N 48°31' W 122°36'0 0.0
2015-May-21 06:32N 48°31' W 122°36'0 0.0
2015-May-21 05:32N 48°31' W 122°36'0 0.0
2015-May-21 04:32N 48°31' W 122°36'0 0.0
2015-May-21 03:32N 48°31' W 122°36'0 0.0
2015-May-21 02:32N 48°31' W 122°36'0 0.0
2015-May-21 01:32N 48°31' W 122°36'0 0.0
2015-May-21 00:32N 48°31' W 122°36'0 0.0
2015-May-20 23:32N 48°31' W 122°36'0 0.0
2015-May-20 22:32N 48°31' W 122°36'0 0.0
2015-May-20 21:32N 48°31' W 122°36'0 0.0
2015-May-20 20:32N 48°31' W 122°36'0 0.0
2015-May-20 19:32N 48°31' W 122°36'0 0.0
2015-May-20 18:32N 48°31' W 122°36'0 0.0
2015-May-20 17:32N 48°31' W 122°36'0 0.0
2015-May-20 16:32N 48°31' W 122°36'0 0.0
2015-May-20 15:32N 48°31' W 122°36'0 0.0
2015-May-20 14:32N 48°31' W 122°36'0 0.0
2015-May-20 13:32N 48°31' W 122°36'0 0.0
2015-May-20 12:32N 48°31' W 122°36'0 0.0
2015-May-20 11:32N 48°31' W 122°36'0 0.0
2015-May-20 10:32N 48°31' W 122°36'0 0.0
2015-May-20 10:29N 48°31' W 122°36'0 0.0
2015-May-20 09:29N 48°31' W 122°36'0 0.0
2015-May-20 08:32N 48°31' W 122°36'0 0.0
2015-May-20 07:32N 48°31' W 122°36'0 0.0
2015-May-20 06:32N 48°31' W 122°36'0 0.0
2015-May-20 05:32N 48°31' W 122°36'0 0.0
2015-May-20 04:26N 48°31' W 122°36'0 0.0
2015-May-20 03:32N 48°31' W 122°36'0 0.0
2015-May-20 02:32N 48°31' W 122°36'0 0.0
2015-May-20 01:32N 48°31' W 122°36'0 0.0
2015-May-20 00:26N 48°31' W 122°36'0 0.0
2015-May-19 23:20N 48°31' W 122°36'0 0.0
2015-May-19 22:33N 48°31' W 122°36'1 0.6
2015-May-19 21:33N 48°31' W 122°36'4 4.1
2015-May-19 20:33N 48°32' W 122°42'8 7.9
2015-May-19 19:33N 48°34' W 122°54'5 4.6
2015-May-19 18:33N 48°32' W 122°60'0 0.0
2015-May-19 17:33N 48°32' W 122°60'6 6.3
2015-May-19 16:33N 48°34' W 122°51'7 7.1
2015-May-19 15:33N 48°32' W 122°41'3 0.3
2015-May-19 05:31N 48°31' W 122°36'0 0.0
2015-May-19 04:25N 48°31' W 122°36'0 0.0
2015-May-19 03:07N 48°31' W 122°36'0 0.0
2015-May-19 02:07N 48°31' W 122°36'3 1.2
2015-May-18 23:33N 48°32' W 122°41'7 6.9
2015-May-18 22:33N 48°36' W 122°49'2 2.3
2015-May-18 21:33N 48°34' W 122°50'1 1.3
2015-May-18 20:33N 48°35' W 122°49'0 0.0
2015-May-18 19:33N 48°35' W 122°49'7 7.1
2015-May-18 18:33N 48°32' W 122°40'2 2.2
2015-May-18 17:31N 48°31' W 122°36'0 0.0
2015-May-18 15:32N 48°31' W 122°36'0 0.0
2015-May-18 14:07N 48°31' W 122°36'0 0.0
2015-May-18 13:20N 48°31' W 122°36'0 0.0
2015-May-18 12:23N 48°31' W 122°36'0 0.0
2015-May-18 08:28N 48°31' W 122°36'0 0.0
2015-May-18 07:10N 48°31' W 122°36'0 0.0
2015-May-17 23:04N 48°31' W 122°36'0 0.0
2015-May-17 22:14N 48°31' W 122°36'0 0.0
2015-May-17 21:29N 48°31' W 122°36'0 0.0
2015-May-17 19:14N 48°31' W 122°36'0 0.0
2015-May-17 13:07N 48°31' W 122°36'0 0.0
2015-May-16 04:33N 48°31' W 122°36'4 3.8
2015-May-16 03:33N 48°30' W 122°42'9 7.7
2015-May-16 02:19N 48°22' W 122°34'7 8.4
2015-May-16 01:33N 48°16' W 122°31'11 7.8
2015-May-16 00:10N 48°06' W 122°27'7 8.9
2015-May-15 23:25N 48°02' W 122°19'4 4.9
2015-May-15 22:33N 48°00' W 122°13'4 4.0
2015-May-15 21:32N 48°01' W 122°19'0 0.0
2015-May-15 20:31N 48°01' W 122°19'0 0.0
2015-May-15 19:33N 48°01' W 122°19'4 4.1
2015-May-15 18:33N 48°00' W 122°13'0 0.1
2015-May-15 17:33N 48°00' W 122°13'4 4.0
2015-May-15 16:33N 48°01' W 122°19'0 0.0
2015-May-15 15:33N 48°01' W 122°19'4 4.1
2015-May-15 14:33N 48°00' W 122°13'0 0.1
2015-May-15 13:28N 48°00' W 122°13'0 0.0
2015-May-15 12:28N 48°00' W 122°13'0 0.0
2015-May-15 11:28N 48°00' W 122°13'0 0.0
2015-May-15 10:28N 48°00' W 122°13'0 0.0
2015-May-15 09:28N 48°00' W 122°13'0 0.0
2015-May-15 08:28N 48°00' W 122°13'0 0.0
2015-May-15 07:28N 48°00' W 122°13'0 0.0
2015-May-15 06:28N 48°00' W 122°13'0 0.0
2015-May-15 05:31N 48°00' W 122°13'0 0.0
2015-May-15 04:28N 48°00' W 122°13'0 0.0
2015-May-15 03:28N 48°00' W 122°13'0 0.0
2015-May-15 02:19N 48°00' W 122°13'0 0.0
2015-May-15 01:28N 48°00' W 122°13'1 1.5
2015-May-15 00:33N 47°59' W 122°15'2 1.7
2015-May-14 23:28N 48°00' W 122°18'3 3.1
2015-May-14 22:33N 48°00' W 122°13'4 4.1
2015-May-14 21:33N 48°01' W 122°19'0 0.0
2015-May-14 20:31N 48°01' W 122°19'4 4.3
2015-May-14 19:33N 48°00' W 122°13'0 0.0
2015-May-14 18:33N 48°00' W 122°13'3 2.9
2015-May-14 17:32N 48°01' W 122°18'1 4.7
2015-May-14 17:16N 48°01' W 122°19'0 0.0
2015-May-14 16:33N 48°01' W 122°19'0 0.0
2015-May-14 16:31N 48°01' W 122°19'4 4.3
2015-May-14 15:33N 47°60' W 122°13'0 0.2
2015-May-14 14:04N 48°00' W 122°13'0 0.0
2015-May-14 13:28N 48°00' W 122°13'0 0.0
2015-May-14 12:25N 48°00' W 122°13'0 0.0
2015-May-14 11:31N 48°00' W 122°13'0 0.0
2015-May-14 10:25N 48°00' W 122°13'0 0.0
2015-May-14 09:31N 48°00' W 122°13'0 0.0
2015-May-14 08:28N 48°00' W 122°13'0 0.0
2015-May-14 07:31N 48°00' W 122°13'0 0.0
2015-May-14 06:31N 48°00' W 122°13'0 0.0
2015-May-14 05:31N 48°00' W 122°13'0 0.0
2015-May-14 04:31N 48°00' W 122°13'0 0.0
2015-May-14 03:25N 48°00' W 122°13'0 0.0
2015-May-14 02:25N 48°00' W 122°13'0 0.0
2015-May-14 01:31N 48°00' W 122°13'1 0.7
2015-May-14 00:32N 47°60' W 122°14'4 4.3
2015-May-13 23:33N 48°01' W 122°19'2 6.6
2015-May-13 23:16N 48°00' W 122°17'2 3.4
2015-May-13 22:33N 48°00' W 122°13'3 2.6
2015-May-13 21:33N 48°00' W 122°17'2 1.6
2015-May-13 20:33N 48°01' W 122°19'4 4.2
2015-May-13 19:33N 47°59' W 122°14'0 0.4
2015-May-13 18:33N 47°59' W 122°14'4 2.0
2015-May-13 16:33N 48°01' W 122°19'4 4.0
2015-May-13 15:33N 48°00' W 122°13'0 0.2
2015-May-13 14:33N 48°00' W 122°13'0 0.1
2015-May-13 13:26N 48°00' W 122°13'0 0.0
2015-May-13 12:26N 48°00' W 122°13'0 0.0
2015-May-13 11:08N 48°00' W 122°13'  

Dump ship's entire track history